Time;durP1;ratioP1;P1;durP2;ratioP2;P2;SDS_P1;SDS_P2;PMS_P1;PMS_P2;Temp;Humidity;BMP_temperature;BMP_pressure;BME280_temperature;BME280_humidity;BME280_pressure;Samples;Min_cycle;Max_cycle;Signal;HPM_P1;HPM_P2
2021/08/30 00:01:14;;;;;;;31.20;16.63;;;23.30;75.80;;;;;;4976299;28;20084;-79
2021/08/30 00:03:40;;;;;;;25.92;17.00;;;23.30;75.90;;;;;;4993605;28;20469;-80
2021/08/30 00:06:06;;;;;;;23.90;16.85;;;23.20;76.00;;;;;;4993856;28;20041;-80
2021/08/30 00:08:32;;;;;;;25.27;16.33;;;23.20;76.30;;;;;;4993642;28;20030;-79
2021/08/30 00:10:57;;;;;;;28.48;16.73;;;23.20;76.40;;;;;;4993845;28;20041;-79
2021/08/30 00:13:23;;;;;;;22.27;16.45;;;23.20;76.60;;;;;;4993565;28;20057;-80
2021/08/30 00:15:49;;;;;;;29.95;16.02;;;23.20;76.80;;;;;;4993746;28;20030;-80
2021/08/30 00:18:15;;;;;;;24.42;14.88;;;23.20;76.90;;;;;;4976216;28;20026;-80
2021/08/30 00:20:40;;;;;;;24.52;15.52;;;23.20;76.70;;;;;;4993745;28;20350;-79
2021/08/30 00:23:06;;;;;;;26.48;14.95;;;23.20;76.70;;;;;;4993907;28;20041;-79
2021/08/30 00:25:32;;;;;;;26.67;15.75;;;23.20;76.60;;;;;;4994051;28;20023;-79
2021/08/30 00:27:58;;;;;;;28.35;15.35;;;23.20;76.70;;;;;;4993761;28;20049;-79
2021/08/30 00:30:23;;;;;;;24.08;15.30;;;23.20;76.70;;;;;;4993329;28;20029;-79
2021/08/30 00:32:49;;;;;;;24.33;15.45;;;23.20;76.80;;;;;;4993337;28;20093;-79
2021/08/30 00:35:16;;;;;;;26.25;16.00;;;23.20;77.00;;;;;;4993161;28;20037;-79
2021/08/30 00:37:42;;;;;;;24.92;15.70;;;23.20;77.10;;;;;;4993238;28;20109;-78
2021/08/30 00:40:08;;;;;;;28.15;15.68;;;23.20;77.20;;;;;;4993224;28;20097;-78
2021/08/30 00:42:35;;;;;;;28.45;16.05;;;23.20;77.40;;;;;;4993134;28;20134;-78
2021/08/30 00:45:06;;;;;;;23.67;16.55;;;23.20;77.80;;;;;;4993196;28;20027;-78
2021/08/30 00:47:31;;;;;;;31.40;16.95;;;23.20;78.40;;;;;;4992992;28;20018;-79
2021/08/30 00:49:57;;;;;;;26.25;18.92;;;23.20;79.00;;;;;;4993176;28;20084;-79
2021/08/30 00:52:23;;;;;;;25.38;17.02;;;23.20;79.50;;;;;;4992927;28;20061;-79
2021/08/30 00:54:49;;;;;;;33.38;16.73;;;23.20;80.10;;;;;;4992987;28;20041;-79
2021/08/30 00:57:16;;;;;;;21.15;18.17;;;23.20;80.30;;;;;;4993342;28;20452;-79
2021/08/30 00:59:42;;;;;;;27.55;16.88;;;23.20;80.50;;;;;;4993038;28;20014;-79
2021/08/30 01:02:12;;;;;;;28.60;17.98;;;23.20;80.80;;;;;;4975575;28;20455;-79
2021/08/30 01:04:39;;;;;;;30.35;18.65;;;23.20;81.00;;;;;;4977459;28;20100;-79
2021/08/30 01:07:27;;;;;;;25.45;18.92;;;23.10;81.00;;;;;;4994327;28;20057;-79
2021/08/30 01:10:23;;;;;;;30.08;18.98;;;23.10;81.40;;;;;;4993170;28;20445;-79
2021/08/30 01:12:56;;;;;;;30.45;19.10;;;23.10;81.40;;;;;;4992976;28;20030;-79
2021/08/30 01:15:29;;;;;;;31.17;20.10;;;23.00;81.30;;;;;;4992181;28;20069;-78
2021/08/30 01:17:59;;;;;;;33.97;22.10;;;23.00;81.40;;;;;;4993014;28;20023;-79
2021/08/30 01:20:48;;;;;;;40.30;25.60;;;23.00;81.50;;;;;;4992766;28;20479;-79
2021/08/30 01:23:15;;;;;;;38.63;25.20;;;23.00;81.70;;;;;;4993174;28;20025;-79
2021/08/30 01:25:41;;;;;;;33.05;23.67;;;23.00;81.80;;;;;;4993383;28;20030;-79
2021/08/30 01:28:08;;;;;;;45.80;25.10;;;23.00;82.10;;;;;;4992775;28;20018;-78
2021/08/30 01:30:39;;;;;;;35.97;21.85;;;22.90;82.40;;;;;;4992678;28;20027;-78
2021/08/30 01:33:05;;;;;;;30.45;20.45;;;22.90;82.60;;;;;;4992732;28;20030;-79
2021/08/30 01:35:33;;;;;;;34.85;21.58;;;22.90;82.80;;;;;;4992495;28;20380;-78
2021/08/30 01:38:06;;;;;;;29.60;20.05;;;22.90;83.30;;;;;;4992556;28;20018;-79
2021/08/30 01:40:32;;;;;;;33.88;20.10;;;22.90;83.60;;;;;;4992635;28;20022;-78
2021/08/30 01:43:00;;;;;;;33.22;24.25;;;22.90;83.90;;;;;;4992646;28;20037;-79
2021/08/30 01:45:28;;;;;;;29.80;20.40;;;22.90;84.30;;;;;;4992976;28;20030;-78
2021/08/30 01:47:58;;;;;;;34.80;20.10;;;22.80;84.80;;;;;;4993536;28;20381;-78
2021/08/30 01:50:25;;;;;;;29.40;19.25;;;22.80;85.10;;;;;;4992630;28;20030;-78
2021/08/30 01:52:52;;;;;;;29.13;20.13;;;22.80;85.30;;;;;;4992754;28;20026;-78
2021/08/30 02:00:51;;;;;;;30.38;19.88;;;22.90;85.60;;;;;;4992478;28;20022;-79
2021/08/30 02:03:29;;;;;;;29.98;21.95;;;22.80;85.60;;;;;;4992485;28;20030;-78
2021/08/30 02:06:04;;;;;;;30.65;21.48;;;22.90;85.60;;;;;;4992375;28;20030;-78
2021/08/30 02:08:32;;;;;;;44.10;23.20;;;22.80;85.70;;;;;;4974960;28;20099;-79
2021/08/30 02:11:04;;;;;;;41.33;23.48;;;22.80;85.80;;;;;;4992458;28;20022;-79
2021/08/30 02:13:30;;;;;;;33.88;22.90;;;22.80;85.90;;;;;;4992251;28;20583;-78
2021/08/30 02:15:57;;;;;;;31.75;23.10;;;22.80;85.90;;;;;;4992193;28;20030;-78
2021/08/30 02:18:37;;;;;;;38.72;24.58;;;22.80;85.80;;;;;;4991955;28;20022;-79
2021/08/30 02:21:05;;;;;;;39.10;25.05;;;22.80;85.70;;;;;;4992035;28;20098;-78
2021/08/30 02:23:36;;;;;;;36.33;24.38;;;22.80;85.60;;;;;;4991983;28;20050;-78
2021/08/30 02:26:11;;;;;;;38.22;25.95;;;22.70;85.50;;;;;;4992670;28;20030;-79
2021/08/30 02:28:39;;;;;;;36.95;25.00;;;22.70;85.50;;;;;;4996617;28;20057;-79
2021/08/30 02:31:06;;;;;;;37.05;25.30;;;22.70;85.40;;;;;;4997795;28;20034;-79
2021/08/30 02:33:32;;;;;;;32.75;24.85;;;22.60;85.40;;;;;;4996178;28;20045;-79
2021/08/30 02:36:03;;;;;;;39.42;25.13;;;22.70;85.40;;;;;;4996110;28;20469;-79
2021/08/30 02:38:31;;;;;;;37.78;24.70;;;22.60;85.40;;;;;;4995666;28;20061;-79
2021/08/30 02:40:59;;;;;;;36.63;24.63;;;22.60;85.30;;;;;;4995067;28;20049;-79
2021/08/30 02:43:26;;;;;;;34.80;23.58;;;22.60;85.10;;;;;;4995199;28;20022;-80
2021/08/30 02:45:54;;;;;;;36.72;24.30;;;22.60;84.80;;;;;;4995306;28;20073;-78
2021/08/30 02:48:20;;;;;;;37.83;23.15;;;22.60;84.50;;;;;;4977700;28;20376;-80
2021/08/30 02:50:47;;;;;;;36.80;23.05;;;22.60;84.40;;;;;;4995403;28;20023;-79
2021/08/30 02:53:13;;;;;;;40.13;23.50;;;22.70;84.30;;;;;;4995157;28;20105;-79
2021/08/30 02:55:38;;;;;;;38.92;22.52;;;22.60;84.20;;;;;;4995111;28;20497;-79
2021/08/30 02:58:05;;;;;;;35.75;22.60;;;22.60;84.10;;;;;;4994983;28;20030;-79
2021/08/30 03:00:32;;;;;;;29.58;20.90;;;22.60;84.00;;;;;;4994929;28;20030;-79
2021/08/30 03:02:59;;;;;;;25.00;20.63;;;22.60;84.00;;;;;;4994487;28;20030;-78
2021/08/30 03:05:26;;;;;;;32.20;19.70;;;22.60;84.00;;;;;;4994855;28;20109;-79
2021/08/30 03:07:52;;;;;;;33.35;19.38;;;22.70;83.80;;;;;;4994794;28;20026;-80
2021/08/30 03:10:18;;;;;;;32.75;19.55;;;22.70;83.50;;;;;;4997168;28;20029;-79
2021/08/30 03:12:46;;;;;;;33.28;19.15;;;22.70;83.20;;;;;;4995887;28;20026;-80
2021/08/30 03:15:16;;;;;;;32.50;21.30;;;22.70;82.90;;;;;;4994784;28;20031;-81
2021/08/30 03:17:44;;;;;;;35.90;19.02;;;22.70;82.60;;;;;;4977179;28;20121;-80
2021/08/30 03:20:16;;;;;;;27.33;19.33;;;22.80;82.40;;;;;;4976991;28;20018;-79
2021/08/30 03:22:42;;;;;;;;;;;22.80;82.10;;;;;;4995048;28;20018;-79
2021/08/30 03:25:14;;;;;;;31.30;19.67;;;22.80;82.00;;;;;;4994555;28;20081;-80
2021/08/30 03:27:42;;;;;;;30.23;21.60;;;22.90;81.80;;;;;;4994502;28;20380;-79
2021/08/30 03:30:09;;;;;;;31.85;19.33;;;22.90;81.60;;;;;;4994497;28;20436;-81
2021/08/30 03:32:36;;;;;;;26.70;18.73;;;22.90;81.40;;;;;;4994635;28;20041;-80
2021/08/30 03:35:03;;;;;;;27.58;17.83;;;23.00;81.30;;;;;;4993936;28;20030;-79
2021/08/30 03:37:29;;;;;;;33.55;19.48;;;23.00;81.00;;;;;;4993997;28;20495;-79
2021/08/30 03:39:56;;;;;;;34.53;18.85;;;23.00;80.90;;;;;;4994129;28;20489;-79
2021/08/30 03:42:24;;;;;;;26.70;19.33;;;23.10;80.90;;;;;;4994535;28;20385;-81
2021/08/30 03:44:50;;;;;;;28.25;18.60;;;23.10;81.00;;;;;;4994488;28;20530;-78
2021/08/30 03:47:16;;;;;;;29.05;17.10;;;23.20;80.70;;;;;;4994375;28;20453;-78
2021/08/30 03:49:43;;;;;;;32.50;19.38;;;23.30;80.20;;;;;;4994986;28;20101;-78
2021/08/30 03:52:09;;;;;;;28.13;17.27;;;23.40;79.90;;;;;;4994580;28;20113;-80
2021/08/30 03:54:36;;;;;;;25.30;17.05;;;23.40;79.80;;;;;;4995225;28;20044;-80
2021/08/30 03:57:02;;;;;;;24.30;16.25;;;23.40;79.80;;;;;;4994503;28;20109;-80
2021/08/30 03:59:33;;;;;;;27.30;16.80;;;23.50;79.80;;;;;;4994223;28;20103;-80
2021/08/30 04:02:00;;;;;;;34.13;17.20;;;23.50;79.70;;;;;;4994026;28;20034;-80
2021/08/30 04:04:27;;;;;;;21.23;15.48;;;23.60;79.70;;;;;;4993678;28;20493;-80
2021/08/30 04:06:55;;;;;;;27.17;16.73;;;23.70;79.30;;;;;;4993862;28;20030;-81
2021/08/30 04:09:22;;;;;;;24.77;15.30;;;23.80;79.00;;;;;;4993765;28;20105;-80
2021/08/30 04:11:48;;;;;;;25.75;16.27;;;23.80;79.00;;;;;;4993618;28;20022;-80
2021/08/30 04:14:15;;;;;;;25.38;16.98;;;23.90;78.90;;;;;;4993487;28;20038;-80
2021/08/30 04:16:41;;;;;;;27.42;15.48;;;23.90;78.50;;;;;;4993473;28;20023;-81
2021/08/30 04:19:07;;;;;;;30.80;14.95;;;24.20;79.10;;;;;;4993900;28;20018;-81
2021/08/30 04:21:33;;;;;;;21.25;14.27;;;24.80;77.50;;;;;;4993622;28;20081;-81
2021/08/30 04:23:59;;;;;;;22.70;14.65;;;25.30;75.20;;;;;;4993262;28;20422;-77
2021/08/30 04:26:25;;;;;;;27.02;14.77;;;25.70;73.80;;;;;;4993017;28;20033;-80
2021/08/30 04:28:51;;;;;;;24.33;14.23;;;26.30;72.80;;;;;;4993210;28;20088;-80
2021/08/30 04:31:16;;;;;;;19.83;13.40;;;26.90;70.70;;;;;;4993139;28;20031;-81
2021/08/30 04:33:42;;;;;;;21.05;13.02;;;27.30;68.80;;;;;;4976113;28;20031;-82
2021/08/30 04:36:09;;;;;;;23.77;15.18;;;27.40;67.60;;;;;;4993826;28;20141;-82
2021/08/30 04:38:35;;;;;;;17.23;13.55;;;27.40;66.60;;;;;;4993345;28;20022;-80
2021/08/30 04:41:00;;;;;;;21.38;14.00;;;27.10;66.10;;;;;;4992673;28;20047;-79
2021/08/30 04:43:26;;;;;;;22.42;13.70;;;26.90;66.50;;;;;;4992941;28;20535;-80
2021/08/30 04:45:52;;;;;;;21.30;14.07;;;26.90;67.10;;;;;;4992895;28;20026;-83
2021/08/30 04:48:18;;;;;;;22.88;14.07;;;27.30;66.70;;;;;;4992627;28;20030;-81
2021/08/30 04:50:43;;;;;;;22.40;13.07;;;28.00;65.30;;;;;;4991502;28;20081;-77
2021/08/30 04:53:09;;;;;;;21.27;12.77;;;28.70;63.90;;;;;;4992456;28;20326;-76
2021/08/30 04:55:36;;;;;;;20.63;13.05;;;29.20;62.40;;;;;;4993083;28;20022;-81
2021/08/30 04:58:04;;;;;;;26.42;12.95;;;29.70;60.90;;;;;;4993721;28;20023;-82
2021/08/30 05:00:30;;;;;;;23.10;12.60;;;30.10;59.60;;;;;;4993411;28;20053;-77
2021/08/30 05:02:56;;;;;;;23.58;12.63;;;30.40;58.40;;;;;;4992483;28;20034;-78
2021/08/30 05:05:21;;;;;;;23.70;12.95;;;30.70;57.90;;;;;;4992316;28;20031;-77
2021/08/30 05:07:47;;;;;;;23.85;12.98;;;30.80;56.90;;;;;;4992015;28;20027;-78
2021/08/30 05:10:16;;;;;;;23.95;13.00;;;30.70;56.00;;;;;;4992545;28;20029;-79
2021/08/30 05:12:42;;;;;;;20.73;12.25;;;30.70;55.70;;;;;;4992558;28;20093;-78
2021/08/30 05:15:08;;;;;;;19.02;12.30;;;30.30;55.70;;;;;;4975666;28;20507;-81
2021/08/30 05:17:34;;;;;;;18.85;12.98;;;29.90;55.80;;;;;;4975965;28;20022;-78
2021/08/30 05:20:00;;;;;;;24.13;12.32;;;29.60;55.80;;;;;;4993569;28;20023;-80
2021/08/30 05:22:25;;;;;;;21.55;12.98;;;29.20;56.50;;;;;;4992360;28;20033;-80
2021/08/30 05:24:51;;;;;;;25.58;12.45;;;29.10;56.70;;;;;;4992697;28;20114;-79
2021/08/30 05:27:17;;;;;;;22.83;13.30;;;28.80;56.50;;;;;;4991939;28;20069;-74
2021/08/30 05:29:43;;;;;;;23.35;12.82;;;28.50;56.80;;;;;;4992571;28;20348;-76
2021/08/30 05:32:09;;;;;;;19.02;12.85;;;28.10;57.20;;;;;;4991999;28;20034;-75
2021/08/30 05:34:35;;;;;;;25.92;12.98;;;27.80;57.80;;;;;;4974151;28;20053;-79
2021/08/30 05:37:00;;;;;;;22.85;13.45;;;27.80;58.00;;;;;;4991881;28;20023;-75
2021/08/30 05:39:26;;;;;;;24.27;12.93;;;27.90;57.90;;;;;;5000945;28;20109;-77
2021/08/30 05:41:52;;;;;;;25.08;12.80;;;27.70;57.70;;;;;;5009683;28;20042;-82
2021/08/30 05:44:17;;;;;;;26.88;12.75;;;27.60;57.90;;;;;;5011065;28;20030;-81
2021/08/30 05:46:46;;;;;;;28.33;13.00;;;27.50;58.10;;;;;;5011579;28;20057;-83
2021/08/30 05:49:12;;;;;;;28.58;13.00;;;27.30;58.30;;;;;;5011995;28;20037;-81
2021/08/30 05:51:38;;;;;;;22.85;12.77;;;27.10;58.70;;;;;;5012267;28;20030;-84
2021/08/30 05:54:03;;;;;;;24.67;12.88;;;27.00;59.20;;;;;;5011825;28;20109;-81
2021/08/30 05:56:29;;;;;;;21.77;12.93;;;26.90;59.50;;;;;;5011843;28;20457;-83
2021/08/30 05:59:01;;;;;;;24.38;11.98;;;26.90;59.60;;;;;;5012914;28;20018;-84
2021/08/30 06:01:35;;;;;;;20.33;12.95;;;27.00;59.70;;;;;;5014394;28;20417;-84
2021/08/30 06:04:02;;;;;;;23.23;12.73;;;27.50;59.40;;;;;;4999486;28;20042;-80
2021/08/30 06:06:27;;;;;;;20.52;12.60;;;28.10;58.60;;;;;;5015844;28;20155;-81
2021/08/30 06:08:53;;;;;;;24.60;12.75;;;28.70;57.30;;;;;;5016014;28;20026;-81
2021/08/30 06:11:19;;;;;;;24.02;12.60;;;29.20;56.30;;;;;;5015548;28;20109;-81
2021/08/30 06:13:45;;;;;;;21.70;12.40;;;29.70;55.80;;;;;;5015515;28;20033;-81
2021/08/30 06:16:10;;;;;;;20.38;11.52;;;30.20;54.90;;;;;;5016003;28;20069;-81
2021/08/30 06:18:36;;;;;;;19.00;12.10;;;30.70;53.40;;;;;;5014885;28;20057;-81
2021/08/30 06:21:02;;;;;;;18.88;12.02;;;30.60;52.90;;;;;;5014850;28;20022;-81
2021/08/30 06:23:29;;;;;;;24.80;11.98;;;30.90;52.80;;;;;;5014967;28;20022;-81
2021/08/30 06:25:55;;;;;;;21.17;12.25;;;31.40;52.30;;;;;;5014853;28;20018;-82
2021/08/30 06:28:20;;;;;;;22.20;12.13;;;31.60;51.30;;;;;;5015121;28;20025;-81
2021/08/30 06:30:46;;;;;;;21.77;12.32;;;31.20;51.20;;;;;;5015276;28;20076;-82
2021/08/30 06:33:12;;;;;;;28.30;11.85;;;30.80;51.70;;;;;;5015179;28;20487;-81
2021/08/30 06:35:42;;;;;;;23.15;12.15;;;30.50;51.90;;;;;;5015280;28;20080;-81
2021/08/30 06:38:09;;;;;;;21.40;12.05;;;30.10;52.40;;;;;;5014951;28;20030;-84
2021/08/30 06:40:34;;;;;;;20.08;11.75;;;30.30;52.80;;;;;;5014315;28;20531;-82
2021/08/30 06:43:00;;;;;;;24.50;12.65;;;30.40;52.20;;;;;;5015763;28;20104;-82
2021/08/30 06:45:28;;;;;;;21.45;12.05;;;30.40;52.50;;;;;;5016170;28;20499;-83
2021/08/30 06:47:54;;;;;;;26.80;13.18;;;30.50;52.80;;;;;;5015264;28;20076;-81
2021/08/30 06:50:20;;;;;;;23.27;13.07;;;30.60;52.10;;;;;;5015356;28;20022;-83
2021/08/30 06:52:46;;;;;;;21.65;12.65;;;30.40;52.20;;;;;;5015005;28;20044;-83
2021/08/30 06:55:12;;;;;;;29.70;13.30;;;30.00;52.70;;;;;;5014615;28;20389;-82
2021/08/30 06:57:38;;;;;;;24.50;12.85;;;29.70;53.30;;;;;;5014878;28;20758;-82
2021/08/30 07:00:05;;;;;;;24.58;12.40;;;29.90;53.90;;;;;;5014926;28;20017;-82
2021/08/30 07:02:31;;;;;;;25.88;12.40;;;30.70;53.70;;;;;;5014541;28;20752;-81
2021/08/30 07:04:57;;;;;;;23.23;12.73;;;31.60;52.90;;;;;;5015013;28;20038;-82
2021/08/30 07:07:23;;;;;;;23.23;12.43;;;32.30;51.40;;;;;;5015056;28;20030;-82
2021/08/30 07:09:49;;;;;;;26.85;12.32;;;32.40;50.60;;;;;;5014561;28;20052;-83
2021/08/30 07:12:15;;;;;;;25.42;13.45;;;32.10;50.30;;;;;;5014147;28;20044;-81
2021/08/30 07:14:40;;;;;;;24.52;12.90;;;31.80;50.60;;;;;;5014233;28;20030;-84
2021/08/30 07:17:06;;;;;;;31.23;11.88;;;31.70;51.20;;;;;;5014718;28;20091;-81
2021/08/30 07:19:32;;;;;;;26.10;13.02;;;32.00;50.90;;;;;;5014513;28;20057;-82
2021/08/30 07:21:58;;;;;;;28.83;14.23;;;32.20;50.80;;;;;;5014188;28;20029;-83
2021/08/30 07:24:23;;;;;;;24.80;11.52;;;32.60;50.70;;;;;;5015195;28;20022;-82
2021/08/30 07:26:49;;;;;;;15.20;11.98;;;33.00;50.00;;;;;;5015675;28;20026;-82
2021/08/30 07:29:16;;;;;;;25.27;13.30;;;32.90;49.00;;;;;;5014531;28;20449;-81
2021/08/30 07:31:42;;;;;;;23.65;12.68;;;32.70;49.00;;;;;;4996867;28;20030;-81
2021/08/30 07:34:08;;;;;;;27.05;14.30;;;32.40;49.20;;;;;;5013756;28;20088;-82
2021/08/30 07:36:34;;;;;;;27.13;15.57;;;32.30;49.50;;;;;;4995905;28;20030;-82
2021/08/30 07:39:00;;;;;;;25.55;14.10;;;32.30;49.60;;;;;;5013580;28;20030;-82
2021/08/30 07:41:27;;;;;;;23.45;12.82;;;32.30;49.70;;;;;;5013460;28;20070;-80
2021/08/30 07:43:52;;;;;;;30.63;13.50;;;32.20;49.40;;;;;;5013593;28;20055;-79
2021/08/30 07:46:20;;;;;;;23.02;13.77;;;31.90;49.80;;;;;;5013454;28;20101;-82
2021/08/30 07:48:47;;;;;;;23.42;13.40;;;31.70;50.40;;;;;;5012915;28;20119;-80
2021/08/30 07:51:12;;;;;;;23.08;13.05;;;31.40;50.80;;;;;;4995858;28;20468;-79
2021/08/30 07:53:40;;;;;;;24.38;14.48;;;31.10;51.30;;;;;;5013037;28;20045;-81
2021/08/30 07:56:06;;;;;;;19.90;12.55;;;30.90;51.60;;;;;;5013169;28;20104;-81
2021/08/30 07:58:32;;;;;;;24.17;12.48;;;30.70;52.10;;;;;;5013751;28;20033;-80
2021/08/30 08:00:58;;;;;;;24.77;12.18;;;30.50;52.30;;;;;;5013015;28;20034;-80
2021/08/30 08:03:24;;;;;;;36.35;13.07;;;30.50;52.60;;;;;;5012818;28;20037;-81
2021/08/30 08:05:50;;;;;;;29.05;12.43;;;30.40;52.70;;;;;;5012901;28;20400;-82
2021/08/30 08:08:16;;;;;;;33.30;12.82;;;30.30;52.90;;;;;;5013258;28;20062;-80
2021/08/30 08:10:43;;;;;;;29.02;14.07;;;30.30;53.40;;;;;;5013713;28;20053;-81
2021/08/30 08:13:12;;;;;;;30.30;13.57;;;30.30;53.30;;;;;;5013825;28;20041;-80
2021/08/30 08:15:38;;;;;;;28.10;13.80;;;30.20;53.60;;;;;;5016884;28;20022;-81
2021/08/30 08:18:04;;;;;;;28.13;14.10;;;30.10;53.60;;;;;;5014295;28;20026;-84
2021/08/30 08:20:31;;;;;;;24.50;13.00;;;30.10;54.60;;;;;;4997152;28;20018;-85
2021/08/30 08:22:58;;;;;;;28.02;13.20;;;30.20;56.30;;;;;;5013980;28;20022;-85
2021/08/30 08:25:24;;;;;;;25.95;12.95;;;30.20;57.00;;;;;;5013885;28;20053;-85
2021/08/30 08:27:50;;;;;;;22.48;13.30;;;30.00;58.00;;;;;;5014792;28;20041;-84
2021/08/30 08:30:15;;;;;;;32.95;13.63;;;30.10;58.00;;;;;;5015058;28;20025;-82
2021/08/30 08:32:42;;;;;;;20.20;12.65;;;30.10;57.90;;;;;;5015742;28;20028;-83
2021/08/30 08:35:12;;;;;;;23.60;13.77;;;30.00;58.60;;;;;;5013395;28;20033;-84
2021/08/30 08:37:38;;;;;;;22.58;12.68;;;29.80;59.20;;;;;;5013506;28;20081;-84
2021/08/30 08:40:06;;;;;;;24.58;12.90;;;29.80;59.40;;;;;;4995455;28;20389;-84
2021/08/30 08:42:36;;;;;;;22.35;12.45;;;29.90;59.10;;;;;;5013102;28;20045;-84
2021/08/30 08:45:05;;;;;;;24.52;12.10;;;29.90;59.10;;;;;;5013263;28;20092;-83
2021/08/30 08:47:30;;;;;;;21.80;11.98;;;29.90;59.60;;;;;;5013199;28;20120;-84
2021/08/30 08:49:57;;;;;;;25.52;11.60;;;29.90;59.10;;;;;;5013215;28;20064;-85
2021/08/30 08:52:24;;;;;;;20.00;13.48;;;29.90;59.00;;;;;;5016061;28;20084;-84
2021/08/30 08:54:50;;;;;;;20.38;12.10;;;29.80;59.00;;;;;;5017800;28;20423;-83
2021/08/30 08:57:16;;;;;;;25.63;12.43;;;29.70;59.30;;;;;;5014678;28;20051;-85
2021/08/30 09:00:06;;;;;;;21.20;11.35;;;29.40;59.90;;;;;;5015715;28;20056;-85
2021/08/30 09:02:34;;;;;;;23.17;11.45;;;29.20;60.60;;;;;;5008050;28;20070;-86
2021/08/30 09:05:00;;;;;;;22.02;11.65;;;29.20;60.30;;;;;;5018833;28;20061;-89
2021/08/30 09:07:31;;;;;;;16.73;11.02;;;29.10;60.00;;;;;;4997088;28;20357;-89
2021/08/30 09:09:59;;;;;;;25.10;11.27;;;29.00;60.20;;;;;;4996798;28;20041;-87
2021/08/30 09:12:25;;;;;;;26.15;11.70;;;28.90;60.50;;;;;;4996661;28;20715;-87
2021/08/30 09:14:51;;;;;;;21.08;11.73;;;29.00;60.50;;;;;;5013955;28;20040;-87
2021/08/30 09:17:16;;;;;;;18.55;11.65;;;29.00;60.50;;;;;;5014294;28;20026;-90
2021/08/30 09:19:42;;;;;;;27.38;12.15;;;29.00;61.30;;;;;;4998027;28;20118;-88
2021/08/30 09:22:10;;;;;;;29.83;12.55;;;29.20;60.60;;;;;;5014503;28;20081;-88
2021/08/30 09:24:37;;;;;;;22.20;10.98;;;29.30;60.50;;;;;;4997427;28;20480;-87
2021/08/30 09:27:06;;;;;;;15.02;11.10;;;29.40;60.20;;;;;;5017256;28;20054;-88
2021/08/30 09:29:40;;;;;;;21.10;11.13;;;29.60;59.70;;;;;;5018244;28;20058;-85
2021/08/30 09:32:13;;;;;;;18.58;11.50;;;29.60;59.10;;;;;;5017258;28;20029;-86
2021/08/30 09:34:52;;;;;;;23.67;11.05;;;29.60;59.00;;;;;;5016289;28;20514;-87
2021/08/30 09:37:22;;;;;;;23.45;11.05;;;29.70;58.30;;;;;;5019370;28;20026;-88
2021/08/30 09:39:50;;;;;;;20.92;10.52;;;29.60;57.70;;;;;;5026517;28;20025;-92
2021/08/30 09:42:17;;;;;;;19.75;10.88;;;29.60;58.00;;;;;;5019621;28;20165;-88
2021/08/30 09:44:44;;;;;;;23.10;11.38;;;29.80;57.70;;;;;;5018757;28;20026;-87
2021/08/30 09:47:27;;;;;;;23.65;11.10;;;29.70;57.30;;;;;;5019364;28;20038;-87
2021/08/30 09:49:55;;;;;;;19.65;10.48;;;29.70;57.90;;;;;;5018600;28;20093;-87
2021/08/30 09:52:22;;;;;;;22.08;11.07;;;29.80;58.80;;;;;;5023212;28;20026;-89
2021/08/30 09:54:49;;;;;;;24.83;10.82;;;29.80;58.10;;;;;;5017796;28;20025;-85
2021/08/30 09:57:15;;;;;;;20.40;11.05;;;29.70;58.20;;;;;;5018144;28;20346;-84
2021/08/30 09:59:46;;;;;;;24.70;12.32;;;29.60;58.60;;;;;;5019423;28;20025;-86
2021/08/30 10:02:17;;;;;;;19.90;12.48;;;29.40;59.10;;;;;;5001107;28;20030;-91
2021/08/30 10:04:44;;;;;;;24.58;11.88;;;29.40;59.60;;;;;;5018427;28;20034;-92
2021/08/30 10:07:11;;;;;;;23.95;12.07;;;29.40;59.20;;;;;;5019742;28;20088;-91
2021/08/30 10:09:40;;;;;;;27.15;11.77;;;29.50;58.80;;;;;;5017976;28;20029;-89
2021/08/30 10:12:06;;;;;;;27.17;11.65;;;29.40;58.50;;;;;;5018311;28;20030;-85
2021/08/30 10:14:32;;;;;;;22.52;11.18;;;29.40;58.50;;;;;;5015396;28;20104;-79
2021/08/30 10:17:02;;;;;;;32.88;11.90;;;29.30;58.70;;;;;;5014825;28;20364;-81
2021/08/30 10:19:30;;;;;;;20.85;11.45;;;29.40;58.40;;;;;;5014835;28;20097;-81
2021/08/30 10:21:57;;;;;;;18.08;11.27;;;29.40;58.00;;;;;;5014994;28;20421;-81
2021/08/30 10:24:23;;;;;;;26.15;12.13;;;29.40;58.10;;;;;;5014826;28;20026;-80
2021/08/30 10:26:58;;;;;;;19.17;12.73;;;29.50;58.50;;;;;;5014664;28;20105;-80
2021/08/30 10:29:34;;;;;;;31.05;14.30;;;29.40;57.80;;;;;;5014629;28;20465;-79
2021/08/30 10:32:00;;;;;;;29.17;13.23;;;29.40;57.90;;;;;;5014510;28;20080;-80
2021/08/30 10:34:35;;;;;;;24.52;12.40;;;29.40;57.80;;;;;;5015675;28;20025;-79
2021/08/30 10:37:03;;;;;;;33.75;12.90;;;29.50;57.60;;;;;;5014810;28;20041;-80
2021/08/30 10:39:45;;;;;;;27.48;12.98;;;29.40;57.60;;;;;;5015401;28;20026;-79
2021/08/30 10:42:12;;;;;;;21.23;13.07;;;29.40;57.70;;;;;;4980065;28;20070;-78
2021/08/30 10:44:55;;;;;;;19.42;12.15;;;29.20;57.60;;;;;;4975649;28;20030;-79
2021/08/30 10:47:35;;;;;;;20.60;12.35;;;29.00;58.00;;;;;;4975295;28;20082;-80
2021/08/30 10:50:02;;;;;;;20.45;12.88;;;28.80;57.80;;;;;;4976180;28;20023;-78
2021/08/30 10:52:40;;;;;;;23.90;11.90;;;28.60;58.50;;;;;;4975960;28;20019;-78
2021/08/30 10:55:20;;;;;;;19.70;12.50;;;28.40;58.90;;;;;;4974603;28;20027;-78
2021/08/30 10:57:51;;;;;;;19.58;12.15;;;28.40;59.20;;;;;;4975745;28;20023;-77
2021/08/30 11:00:17;;;;;;;24.27;11.88;;;28.40;59.60;;;;;;4975262;28;20050;-76
2021/08/30 11:02:48;;;;;;;26.88;11.65;;;28.40;59.30;;;;;;4975219;28;20101;-77
2021/08/30 11:05:18;;;;;;;20.20;12.10;;;28.40;59.30;;;;;;4973515;28;20046;-79
2021/08/30 11:07:50;;;;;;;31.13;11.63;;;28.40;58.80;;;;;;4975058;28;20114;-78
2021/08/30 11:10:15;;;;;;;22.52;11.90;;;28.40;58.50;;;;;;4973563;28;20026;-78
2021/08/30 11:12:42;;;;;;;17.25;10.40;;;28.50;58.30;;;;;;4974809;28;20114;-77
2021/08/30 11:15:08;;;;;;;27.75;11.10;;;28.60;58.10;;;;;;4974635;28;20027;-76
2021/08/30 11:17:36;;;;;;;18.42;10.25;;;28.60;58.10;;;;;;4974473;28;20026;-78
2021/08/30 11:20:03;;;;;;;25.13;10.18;;;28.70;57.90;;;;;;4974860;28;20030;-75
2021/08/30 11:22:29;;;;;;;17.00;11.15;;;28.70;57.80;;;;;;4974306;28;20041;-78
2021/08/30 11:24:58;;;;;;;18.67;10.18;;;28.70;57.90;;;;;;4974275;28;20035;-80
2021/08/30 11:27:27;;;;;;;25.50;10.25;;;28.70;58.10;;;;;;4974266;28;20713;-78
2021/08/30 11:29:55;;;;;;;21.10;11.18;;;28.70;58.10;;;;;;4974255;28;20030;-79
2021/08/30 11:32:24;;;;;;;25.52;12.82;;;28.70;58.50;;;;;;4972959;28;20329;-80
2021/08/30 11:34:51;;;;;;;20.30;9.82;;;28.70;58.50;;;;;;4974295;28;20023;-81
2021/08/30 11:37:20;;;;;;;20.90;10.63;;;28.70;58.40;;;;;;4974485;28;20029;-79
2021/08/30 11:39:50;;;;;;;24.33;9.63;;;28.80;58.50;;;;;;4974320;28;20373;-83
2021/08/30 11:42:22;;;;;;;18.05;9.98;;;28.90;58.20;;;;;;5004496;28;20065;-84
2021/08/30 11:44:49;;;;;;;19.75;9.95;;;28.90;57.80;;;;;;5015145;28;20029;-85
2021/08/30 11:47:17;;;;;;;21.27;9.85;;;29.00;58.30;;;;;;5021367;28;20044;-86
2021/08/30 11:49:44;;;;;;;23.15;10.38;;;29.20;58.30;;;;;;5024189;28;20069;-86
2021/08/30 11:52:12;;;;;;;22.52;9.40;;;29.30;57.70;;;;;;5014103;28;20030;-85
2021/08/30 11:54:40;;;;;;;22.35;9.77;;;29.40;57.30;;;;;;5013767;28;20358;-82
2021/08/30 11:57:09;;;;;;;22.90;9.27;;;29.40;57.10;;;;;;5014191;28;20468;-85
2021/08/30 11:59:36;;;;;;;20.40;9.98;;;29.50;56.80;;;;;;5014735;28;20531;-86
2021/08/30 12:02:04;;;;;;;18.80;9.98;;;29.50;57.00;;;;;;5014946;28;20022;-86
2021/08/30 12:04:35;;;;;;;23.88;9.77;;;29.60;57.20;;;;;;5017315;28;20033;-85
2021/08/30 12:07:05;;;;;;;18.63;10.20;;;29.80;56.90;;;;;;5014852;28;20693;-83
2021/08/30 12:09:48;;;;;;;21.00;10.02;;;30.00;56.40;;;;;;5015090;28;20426;-85
2021/08/30 12:12:21;;;;;;;17.52;9.77;;;30.00;56.20;;;;;;5014358;28;20022;-81
2021/08/30 12:14:58;;;;;;;21.20;10.70;;;30.10;56.10;;;;;;5013313;28;20026;-84
2021/08/30 12:17:25;;;;;;;26.98;13.10;;;30.20;55.80;;;;;;5012947;28;20456;-83
2021/08/30 12:19:56;;;;;;;22.23;10.75;;;30.10;55.60;;;;;;5013165;28;20058;-83
2021/08/30 12:22:49;;;;;;;22.53;11.10;;;29.90;55.80;;;;;;5013718;28;20073;-83
2021/08/30 12:25:24;;;;;;;20.48;9.75;;;29.80;56.10;;;;;;5004499;28;20344;-84
2021/08/30 12:27:52;;;;;;;17.25;10.45;;;29.70;56.40;;;;;;4995737;28;20034;-83
2021/08/30 12:30:46;;;;;;;27.30;10.25;;;29.70;56.50;;;;;;4997786;28;20026;-84
2021/08/30 12:33:17;;;;;;;19.10;11.02;;;29.80;56.50;;;;;;5013782;28;20049;-82
2021/08/30 12:35:45;;;;;;;;;;;29.90;56.30;;;;;;5014317;28;20121;-86
2021/08/30 12:38:20;;;;;;;20.35;10.55;;;30.00;56.40;;;;;;5013679;28;19906;-79